createdAt,value
2018-06-20T00:01:57.525Z,69.21
2018-06-20T00:04:25.272Z,69.39
2018-06-20T00:06:54.197Z,69.99
2018-06-20T00:09:21.933Z,69.58
2018-06-20T00:11:50.848Z,69.42
2018-06-20T00:14:19.183Z,69.38
2018-06-20T00:16:47.509Z,69.38
2018-06-20T00:19:15.828Z,69.50
2018-06-20T00:21:44.176Z,69.55
2018-06-20T00:24:12.506Z,69.52
2018-06-20T00:26:40.306Z,69.50
2018-06-20T00:29:09.228Z,69.58
2018-06-20T00:31:37.554Z,69.64
2018-06-20T00:34:05.886Z,69.58
2018-06-20T00:36:34.277Z,69.55
2018-06-20T00:39:02.028Z,69.58
2018-06-20T00:41:30.930Z,69.71
2018-06-20T00:43:59.271Z,69.94
2018-06-20T00:46:27.609Z,69.94
2018-06-20T00:48:55.938Z,69.99
2018-06-20T00:51:23.685Z,70.08
2018-06-20T00:53:52.598Z,70.07
2018-06-20T00:56:20.943Z,70.15
2018-06-20T00:58:49.276Z,70.37
2018-06-20T01:01:17.604Z,70.47
2018-06-20T01:03:45.529Z,70.48
2018-06-20T01:06:14.266Z,70.60
2018-06-20T01:08:42.590Z,70.65
2018-06-20T01:11:10.906Z,70.87
2018-06-20T01:13:39.243Z,71.15
2018-06-20T01:16:07.585Z,71.07
2018-06-20T01:18:35.345Z,71.43
2018-06-20T01:21:03.679Z,71.37
2018-06-20T01:23:32.813Z,71.33
2018-06-20T01:26:00.925Z,71.47
2018-06-20T01:28:29.253Z,71.42
2018-06-20T01:30:57.595Z,71.60
2018-06-20T01:33:25.915Z,71.51
2018-06-20T01:35:54.250Z,71.59
2018-06-20T01:38:22.621Z,71.45
2018-06-20T01:40:50.403Z,71.49
2018-06-20T01:43:19.322Z,71.58
2018-06-20T01:45:47.689Z,71.55
2018-06-20T01:48:15.436Z,71.89
2018-06-20T01:50:44.343Z,71.87
2018-06-20T01:53:12.090Z,71.97
2018-06-20T01:55:40.574Z,72.01
2018-06-20T01:58:09.433Z,72.21
2018-06-20T02:00:37.757Z,72.14
2018-06-20T02:03:06.095Z,72.16
2018-06-20T02:05:34.422Z,72.26
2018-06-20T02:08:02.753Z,72.35
2018-06-20T02:10:30.503Z,72.34
2018-06-20T02:13:02.313Z,72.08
2018-06-20T02:15:31.266Z,72.10
2018-06-20T02:17:59.590Z,72.18
2018-06-20T02:20:27.923Z,72.14
2018-06-20T02:22:56.259Z,72.33
2018-06-20T02:25:24.824Z,72.23
2018-06-20T02:27:52.923Z,72.04
2018-06-20T02:30:21.292Z,72.05
2018-06-20T02:32:49.480Z,72.17
2018-06-20T02:35:18.393Z,71.90
2018-06-20T02:37:46.139Z,71.98
2018-06-20T02:40:15.117Z,71.91
2018-06-20T02:42:43.446Z,71.76
2018-06-20T02:45:11.780Z,71.52
2018-06-20T02:47:40.128Z,71.43
2018-06-20T02:50:09.419Z,71.48
2018-06-20T02:52:37.844Z,71.58
2018-06-20T02:55:05.510Z,71.68
2018-06-20T02:57:34.429Z,71.85
2018-06-20T03:00:02.750Z,71.90
2018-06-20T03:02:31.071Z,71.94
2018-06-20T03:04:59.610Z,71.92
2018-06-20T03:07:27.912Z,72.23
2018-06-20T03:09:56.252Z,72.24
2018-06-20T03:12:24.621Z,72.47
2018-06-20T03:14:52.959Z,72.79
2018-06-20T03:17:20.701Z,72.83
2018-06-20T03:19:49.620Z,72.95
2018-06-20T03:22:17.996Z,72.91
2018-06-20T03:24:45.695Z,73.02
2018-06-20T03:27:14.658Z,72.88
2018-06-20T03:29:42.984Z,72.76
2018-06-20T03:32:11.315Z,72.64
2018-06-20T03:34:39.637Z,72.54
2018-06-20T03:37:07.969Z,72.37
2018-06-20T03:39:36.295Z,72.20
2018-06-20T03:42:04.553Z,72.05
2018-06-20T03:44:32.396Z,71.99
2018-06-20T03:47:01.317Z,71.93
2018-06-20T03:49:29.051Z,71.69
2018-06-20T03:51:57.960Z,71.45
2018-06-20T03:54:26.688Z,71.34
2018-06-20T03:56:55.899Z,71.04
2018-06-20T03:59:23.631Z,70.58
2018-06-20T04:01:52.537Z,70.31
2018-06-20T04:04:20.896Z,70.03
2018-06-20T04:06:49.255Z,69.79
2018-06-20T04:09:17.584Z,69.82
2018-06-20T04:11:45.917Z,69.81
2018-06-20T04:14:14.241Z,69.94
2018-06-20T04:16:42.000Z,69.89
2018-06-20T04:19:10.898Z,69.82
2018-06-20T04:21:39.248Z,69.77
2018-06-20T04:24:07.615Z,69.83
2018-06-20T04:26:35.976Z,69.70
2018-06-20T04:29:04.367Z,69.73
2018-06-20T04:31:32.632Z,69.43
2018-06-20T04:34:01.812Z,69.20
2018-06-20T04:36:28.861Z,68.79
2018-06-20T04:38:57.641Z,68.52
2018-06-20T04:41:25.971Z,67.86
2018-06-20T04:43:53.776Z,67.77
2018-06-20T04:46:22.132Z,67.45
2018-06-20T04:48:50.456Z,66.89
2018-06-20T04:51:19.370Z,66.60
2018-06-20T04:53:47.722Z,66.00
2018-06-20T04:56:15.450Z,66.19
2018-06-20T04:58:44.578Z,65.87
2018-06-20T05:01:12.350Z,65.45
2018-06-20T05:03:41.259Z,65.66
2018-06-20T05:06:09.037Z,65.00
2018-06-20T05:08:37.937Z,64.98
2018-06-20T05:11:05.691Z,64.69
2018-06-20T05:13:34.625Z,64.42
2018-06-20T05:16:02.951Z,64.78
2018-06-20T05:18:31.313Z,64.71
2018-06-20T05:20:59.618Z,64.50
2018-06-20T05:23:28.002Z,64.31
2018-06-20T05:25:55.707Z,63.93
2018-06-20T05:28:24.635Z,63.84
2018-06-20T05:30:52.964Z,63.91
2018-06-20T05:33:20.725Z,63.58
2018-06-20T05:35:49.646Z,63.46
2018-06-20T05:38:17.977Z,62.64
2018-06-20T05:40:46.319Z,62.33
2018-06-20T05:43:14.647Z,61.77
2018-06-20T05:45:42.512Z,60.75
2018-06-20T05:48:11.013Z,61.09
2018-06-20T05:50:39.979Z,60.97
2018-06-20T05:53:08.413Z,60.79
2018-06-20T05:55:36.717Z,60.44
2018-06-20T05:58:04.550Z,60.25
2018-06-20T06:00:36.716Z,59.81
2018-06-20T06:03:04.219Z,59.79
2018-06-20T06:05:32.572Z,59.61
2018-06-20T06:08:00.900Z,59.31
2018-06-20T06:10:28.651Z,59.46
2018-06-20T06:12:57.559Z,59.43
2018-06-20T06:15:25.893Z,59.04
2018-06-20T06:17:53.642Z,59.18
2018-06-20T06:20:22.581Z,59.09
2018-06-20T06:22:50.936Z,59.14
2018-06-20T06:25:19.336Z,58.71
2018-06-20T06:27:47.662Z,58.22
2018-06-20T06:30:15.983Z,57.40
2018-06-20T06:32:44.325Z,57.15
2018-06-20T06:35:12.641Z,57.04
2018-06-20T06:37:41.455Z,56.78
2018-06-20T06:40:09.745Z,56.54
2018-06-20T06:42:38.660Z,56.30
2018-06-20T06:45:07.014Z,56.66
2018-06-20T06:47:34.861Z,56.83
2018-06-20T06:50:03.844Z,55.92
2018-06-20T06:52:32.187Z,55.90
2018-06-20T06:55:00.532Z,56.28
2018-06-20T06:57:28.863Z,56.07
2018-06-20T06:59:57.179Z,55.91
2018-06-20T07:02:25.527Z,55.21
2018-06-20T07:04:53.860Z,55.08
2018-06-20T07:07:21.634Z,55.49
2018-06-20T07:09:50.561Z,55.75
2018-06-20T07:12:18.887Z,55.33
2018-06-20T07:14:46.635Z,55.99
2018-06-20T07:17:14.976Z,56.14
2018-06-20T07:19:43.931Z,55.08
2018-06-20T07:22:12.260Z,55.15
2018-06-20T07:24:40.598Z,54.97
2018-06-20T07:27:08.914Z,55.23
2018-06-20T07:29:37.481Z,55.05
2018-06-20T07:32:05.015Z,54.47
2018-06-20T07:34:34.009Z,53.69
2018-06-20T07:37:02.269Z,52.12
2018-06-20T07:39:30.603Z,50.19
2018-06-20T07:41:58.927Z,49.72
2018-06-20T07:44:27.272Z,49.60
2018-06-20T07:46:56.397Z,50.01
2018-06-20T07:49:24.148Z,49.88
2018-06-20T07:51:53.054Z,49.81
2018-06-20T07:54:21.386Z,50.49
2018-06-20T07:56:49.730Z,50.51
2018-06-20T07:59:18.049Z,49.87
2018-06-20T08:01:54.858Z,50.05
2018-06-20T08:04:25.098Z,50.15
2018-06-20T08:06:52.828Z,49.02
2018-06-20T08:09:27.353Z,49.66
2018-06-20T08:12:01.196Z,49.54
2018-06-20T08:14:35.244Z,45.72
2018-06-20T08:17:03.619Z,44.42
2018-06-20T08:19:32.864Z,45.31
2018-06-20T08:22:01.192Z,45.81
2018-06-20T08:24:28.938Z,45.49
2018-06-20T08:26:57.845Z,44.97
2018-06-20T08:29:25.591Z,45.80
2018-06-20T08:31:54.512Z,46.26
2018-06-20T08:34:23.100Z,45.64
2018-06-20T08:36:51.248Z,44.83
2018-06-20T08:39:21.079Z,44.65
2018-06-20T08:41:49.593Z,45.15
2018-06-20T08:44:17.933Z,44.82
2018-06-20T08:46:46.250Z,45.00
2018-06-20T08:49:14.588Z,44.85
2018-06-20T08:51:42.915Z,44.04
2018-06-20T08:54:11.239Z,43.13
2018-06-20T08:56:39.791Z,42.24
2018-06-20T08:59:08.842Z,42.40
2018-06-20T09:01:37.186Z,42.66
2018-06-20T09:04:11.494Z,42.66
2018-06-20T09:06:40.067Z,41.87
2018-06-20T09:09:13.791Z,42.50
2018-06-20T09:11:43.019Z,42.00
2018-06-20T09:14:11.325Z,41.93
2018-06-20T09:16:45.346Z,42.09
2018-06-20T09:19:15.893Z,42.36
2018-06-20T09:21:44.908Z,41.65
2018-06-20T09:24:13.234Z,41.36
2018-06-20T09:26:41.733Z,41.02
2018-06-20T09:29:09.415Z,41.23
2018-06-20T09:31:37.748Z,41.51
2018-06-20T09:34:06.646Z,40.99
2018-06-20T09:36:34.968Z,41.23
2018-06-20T09:39:03.324Z,41.01
2018-06-20T09:41:31.672Z,40.92
2018-06-20T09:43:59.989Z,41.14
2018-06-20T09:46:40.294Z,41.05
2018-06-20T09:49:01.188Z,40.91
2018-06-20T09:51:30.619Z,40.69
2018-06-20T09:53:58.354Z,40.77
2018-06-20T09:56:27.257Z,40.84
2018-06-20T09:58:55.004Z,40.86
2018-06-20T10:01:29.712Z,40.47
2018-06-20T10:04:03.517Z,40.26
2018-06-20T10:06:37.408Z,40.24
2018-06-20T10:09:05.738Z,40.14
2018-06-20T10:11:34.078Z,40.14
2018-06-20T10:14:02.443Z,40.17
2018-06-20T10:16:31.682Z,39.97
2018-06-20T10:19:01.420Z,39.79
2018-06-20T10:21:29.730Z,40.06
2018-06-20T10:23:58.001Z,40.56
2018-06-20T10:26:28.600Z,40.28
2018-06-20T10:28:56.919Z,40.40
2018-06-20T10:31:25.481Z,40.56
2018-06-20T10:33:53.581Z,40.83
2018-06-20T10:36:21.908Z,41.35
2018-06-20T10:38:51.590Z,41.27
2018-06-20T10:41:18.028Z,41.07
2018-06-20T10:43:46.919Z,41.49
2018-06-20T10:46:14.746Z,41.69
2018-06-20T10:48:45.523Z,41.84
2018-06-20T10:51:14.722Z,41.77
2018-06-20T10:53:43.925Z,42.09
2018-06-20T10:56:12.032Z,42.17
2018-06-20T10:58:42.091Z,42.37
2018-06-20T11:01:16.501Z,42.45
2018-06-20T11:03:44.825Z,42.59
2018-06-20T11:06:15.070Z,42.47
2018-06-20T11:08:49.958Z,42.54
2018-06-20T11:11:23.266Z,42.80
2018-06-20T11:13:51.749Z,42.67
2018-06-20T11:16:19.481Z,42.57
2018-06-20T11:18:47.816Z,42.62
2018-06-20T11:21:16.726Z,42.30
2018-06-20T11:23:45.047Z,42.42
2018-06-20T11:26:13.377Z,42.32
2018-06-20T11:28:41.818Z,42.52
2018-06-20T11:31:10.373Z,42.45
2018-06-20T11:33:38.681Z,42.52
2018-06-20T11:36:07.557Z,42.33
2018-06-20T11:38:35.894Z,42.06
2018-06-20T11:41:05.131Z,41.94
2018-06-20T11:43:33.453Z,41.39
2018-06-20T11:46:01.790Z,40.88
2018-06-20T11:48:30.121Z,40.81
2018-06-20T11:50:57.862Z,41.02
2018-06-20T11:53:26.775Z,40.47
2018-06-20T11:55:55.214Z,39.56
2018-06-20T11:58:23.518Z,39.67
2018-06-20T12:00:51.270Z,39.91
2018-06-20T12:03:20.517Z,39.68
2018-06-20T12:05:51.832Z,39.88
2018-06-20T12:08:26.351Z,39.26
2018-06-20T12:10:56.627Z,38.99
2018-06-20T12:13:25.932Z,38.42
2018-06-20T12:16:00.000Z,38.70
2018-06-20T12:18:33.939Z,38.51
2018-06-20T12:21:07.229Z,38.54
2018-06-20T12:23:41.703Z,38.41
2018-06-20T12:26:15.735Z,38.30
2018-06-20T12:28:48.990Z,37.87
2018-06-20T12:31:25.190Z,37.46
2018-06-20T12:33:59.330Z,37.54
2018-06-20T12:36:34.725Z,37.48
2018-06-20T12:39:04.937Z,37.51
2018-06-20T12:41:30.910Z,36.58
2018-06-20T12:44:06.636Z,36.75
2018-06-20T12:46:36.434Z,36.65
2018-06-20T12:49:05.188Z,36.12
2018-06-20T12:51:33.683Z,36.02
2018-06-20T12:54:02.023Z,36.11
2018-06-20T12:56:30.407Z,36.34
2018-06-20T12:58:58.157Z,35.55
2018-06-20T13:01:27.063Z,35.77
2018-06-20T13:03:56.462Z,35.63
2018-06-20T13:06:24.770Z,35.36
2018-06-20T13:11:32.273Z,34.65
2018-06-20T13:14:00.600Z,33.99
2018-06-20T13:16:28.935Z,34.16
2018-06-20T13:18:57.269Z,33.88
2018-06-20T13:21:25.061Z,33.64
2018-06-20T13:45:17.377Z,31.96
2018-06-20T13:47:50.553Z,32.05
2018-06-20T13:50:18.915Z,32.06
2018-06-20T13:52:47.270Z,32.22
2018-06-20T13:55:15.604Z,31.76
2018-06-20T13:57:44.014Z,31.66
2018-06-20T14:00:15.556Z,31.87
2018-06-20T14:02:43.987Z,31.89
2018-06-20T14:05:12.352Z,31.74
2018-06-20T14:07:41.700Z,31.64
2018-06-20T14:10:11.065Z,31.60
2018-06-20T14:12:39.716Z,32.27
2018-06-20T14:15:09.778Z,31.54
2018-06-20T14:17:38.176Z,31.38
2018-06-20T14:20:07.543Z,31.93
2018-06-20T14:22:42.224Z,32.34
2018-06-20T14:25:12.299Z,33.53
2018-06-20T14:27:40.304Z,34.13
2018-06-20T14:30:14.679Z,34.10
2018-06-20T14:32:57.101Z,33.72
2018-06-20T14:44:18.195Z,33.19
2018-06-20T14:46:54.414Z,33.44
2018-06-20T14:49:23.648Z,34.03
2018-06-20T14:51:52.192Z,34.99
2018-06-20T14:54:23.366Z,36.16
2018-06-20T14:56:56.466Z,37.25
2018-06-20T14:59:26.375Z,37.64
2018-06-20T15:01:57.215Z,37.56
2018-06-20T15:04:28.910Z,37.73
2018-06-20T15:06:57.283Z,38.00
2018-06-20T15:12:34.078Z,38.66
2018-06-20T15:15:09.859Z,38.83
2018-06-20T15:18:16.846Z,38.55
2018-06-20T15:20:36.666Z,38.24
2018-06-20T15:23:08.843Z,37.49
2018-06-20T15:25:34.535Z,37.17
2018-06-20T15:28:07.004Z,37.39
2018-06-20T15:30:36.142Z,37.62
2018-06-20T15:33:04.652Z,38.18
2018-06-20T15:35:41.863Z,38.82
2018-06-20T15:41:12.702Z,40.26
2018-06-20T15:43:42.688Z,40.31
2018-06-20T15:46:10.120Z,40.57
2018-06-20T15:48:38.278Z,41.06
2018-06-20T15:51:06.779Z,41.77
2018-06-20T15:53:36.226Z,42.08
2018-06-20T15:56:05.118Z,42.29
2018-06-20T15:58:33.598Z,42.57
2018-06-20T16:01:02.030Z,42.63
2018-06-20T16:03:32.660Z,43.01
2018-06-20T16:06:01.042Z,43.30
2018-06-20T16:08:29.361Z,43.82
2018-06-20T16:10:57.695Z,44.60
2018-06-20T16:13:26.013Z,45.33
2018-06-20T16:15:54.711Z,45.39
2018-06-20T16:18:22.988Z,45.58
2018-06-20T16:20:57.334Z,45.48
2018-06-20T16:23:31.731Z,45.69
2018-06-20T16:26:00.083Z,45.86
2018-06-20T16:28:35.103Z,45.57
2018-06-20T16:31:02.170Z,45.40
2018-06-20T16:33:31.100Z,44.64
2018-06-20T16:35:59.428Z,43.62
2018-06-20T16:38:27.175Z,42.59
2018-06-20T16:40:56.927Z,42.44
2018-06-20T16:43:25.283Z,41.94
2018-06-20T16:45:53.835Z,41.37
2018-06-20T16:48:21.934Z,40.64
2018-06-20T16:50:50.261Z,40.39
2018-06-20T16:53:18.363Z,39.92
2018-06-20T16:55:46.915Z,39.75
2018-06-20T16:58:15.241Z,40.44
2018-06-20T17:00:46.064Z,40.72
2018-06-20T17:08:32.974Z,42.04
2018-06-20T17:11:00.497Z,42.66
2018-06-20T17:13:31.579Z,42.86
2018-06-20T17:16:00.614Z,43.21
2018-06-20T17:18:30.925Z,43.83
2018-06-20T17:21:00.154Z,44.16
2018-06-20T17:23:28.627Z,44.55
2018-06-20T17:25:56.369Z,44.62
2018-06-20T17:28:25.280Z,44.72
2018-06-20T17:30:53.097Z,45.16
2018-06-20T17:33:21.970Z,45.42
2018-06-20T17:35:50.363Z,45.46
2018-06-20T17:38:18.089Z,45.72
2018-06-20T17:40:46.979Z,45.99
2018-06-20T17:43:15.379Z,46.54
2018-06-20T17:45:43.093Z,47.02
2018-06-20T17:48:12.014Z,47.57
2018-06-20T17:50:40.367Z,47.67
2018-06-20T17:53:08.692Z,48.06
2018-06-20T17:55:38.268Z,48.18
2018-06-20T17:58:06.134Z,48.60
2018-06-20T18:00:35.050Z,48.72
2018-06-20T18:03:03.596Z,48.87
2018-06-20T18:05:33.680Z,48.68
2018-06-20T18:08:03.927Z,48.82
2018-06-20T18:10:48.926Z,48.71
2018-06-20T18:13:17.247Z,48.50
2018-06-20T18:15:46.991Z,48.37
2018-06-20T18:18:15.898Z,48.47
2018-06-20T18:20:44.981Z,48.73
2018-06-20T18:23:13.582Z,49.06
2018-06-20T18:25:41.685Z,49.17
2018-06-20T18:28:11.674Z,49.13
2018-06-20T18:30:39.420Z,49.00
2018-06-20T18:33:07.771Z,48.79
2018-06-20T18:35:36.663Z,48.51
2018-06-20T18:38:05.037Z,48.27
2018-06-20T18:40:33.594Z,48.13
2018-06-20T18:43:01.742Z,48.05
2018-06-20T18:45:31.520Z,47.97
2018-06-20T18:48:00.513Z,47.96
2018-06-20T18:50:28.607Z,48.30
2018-06-20T18:52:56.942Z,48.08
2018-06-20T18:55:25.298Z,48.24
2018-06-20T18:57:53.608Z,48.20
2018-06-20T19:03:41.366Z,48.43
2018-06-20T19:06:46.817Z,48.61
2018-06-20T19:09:05.758Z,48.99
2018-06-20T19:11:33.815Z,49.38
2018-06-20T19:14:02.204Z,49.48
2018-06-20T19:16:30.529Z,49.63
2018-06-20T19:18:58.878Z,49.37
2018-06-20T19:21:27.272Z,49.35
2018-06-20T19:23:55.566Z,49.54
2018-06-20T19:26:23.900Z,49.86
2018-06-20T19:28:52.237Z,49.94
2018-06-20T19:31:19.998Z,49.82
2018-06-20T19:33:48.916Z,49.87
2018-06-20T19:36:17.282Z,50.07
2018-06-20T19:38:45.933Z,50.24
2018-06-20T19:41:14.035Z,50.40
2018-06-20T19:43:42.398Z,50.65
2018-06-20T19:46:11.284Z,50.68
2018-06-20T19:48:39.649Z,50.72
2018-06-20T19:51:07.461Z,50.50
2018-06-20T19:53:36.380Z,50.47
2018-06-20T19:56:04.724Z,50.30
2018-06-20T19:58:33.058Z,50.24
2018-06-20T20:01:01.388Z,50.14
2018-06-20T20:03:29.169Z,50.20
2018-06-20T20:05:58.069Z,50.32
2018-06-20T20:08:26.490Z,50.53
2018-06-20T20:10:54.230Z,50.67
2018-06-20T20:13:24.161Z,50.70
2018-06-20T20:15:51.817Z,51.10
2018-06-20T20:18:20.155Z,51.44
2018-06-20T20:20:48.637Z,51.75
2018-06-20T20:23:16.973Z,51.78
2018-06-20T20:25:44.738Z,51.75
2018-06-20T20:28:13.689Z,51.98
2018-06-20T20:30:42.020Z,52.49
2018-06-20T20:33:13.423Z,52.67
2018-06-20T20:35:46.826Z,52.79
2018-06-20T20:38:15.289Z,52.77
2018-06-20T20:40:43.602Z,52.92
2018-06-20T20:43:13.335Z,52.99
2018-06-20T20:45:40.605Z,52.81
2018-06-20T20:48:09.715Z,52.52
2018-06-20T20:50:37.169Z,52.57
2018-06-20T20:53:05.517Z,52.85
2018-06-20T20:55:33.947Z,52.73
2018-06-20T20:58:01.653Z,52.71
2018-06-20T21:00:30.656Z,53.01
2018-06-20T21:02:58.995Z,53.67
2018-06-20T21:05:27.399Z,54.36
2018-06-20T21:07:55.769Z,54.91
2018-06-20T21:10:24.602Z,55.16
2018-06-20T21:12:53.005Z,55.34
2018-06-20T21:15:20.697Z,55.35
2018-06-20T21:17:49.615Z,55.56
2018-06-20T21:20:19.333Z,55.76
2018-06-20T21:22:47.746Z,55.92
2018-06-20T21:25:15.508Z,56.13
2018-06-20T21:27:45.827Z,56.21
2018-06-20T21:30:12.927Z,56.38
2018-06-20T21:32:41.739Z,56.64
2018-06-20T21:35:12.173Z,56.92
2018-06-20T21:37:38.127Z,57.16
2018-06-20T21:40:05.881Z,57.12
2018-06-20T21:42:34.249Z,56.98
2018-06-20T21:45:03.174Z,56.88
2018-06-20T21:47:30.931Z,56.79
2018-06-20T21:49:59.858Z,56.62
2018-06-20T21:52:28.192Z,56.70
2018-06-20T21:54:55.951Z,56.80
2018-06-20T21:57:24.870Z,56.65
2018-06-20T21:59:52.622Z,56.45
2018-06-20T22:02:20.958Z,56.81
2018-06-20T22:04:49.915Z,57.11
2018-06-20T22:07:18.241Z,57.39
2018-06-20T22:09:45.996Z,57.67
2018-06-20T22:12:14.370Z,58.11
2018-06-20T22:14:43.280Z,58.42
2018-06-20T22:17:11.066Z,58.54
2018-06-20T22:19:39.980Z,58.73
2018-06-20T22:22:08.305Z,58.90
2018-06-20T22:24:36.640Z,58.51
2018-06-20T22:27:04.971Z,58.22
2018-06-20T22:29:33.317Z,58.04
2018-06-20T22:32:01.078Z,57.85
2018-06-20T22:34:30.001Z,57.75
2018-06-20T22:36:58.351Z,57.73
2018-06-20T22:39:26.122Z,57.55
2018-06-20T22:41:55.028Z,57.39
2018-06-20T22:44:23.377Z,57.28
2018-06-20T22:46:51.115Z,57.38
2018-06-20T22:49:20.027Z,57.44
2018-06-20T22:51:48.353Z,57.73
2018-06-20T22:54:16.122Z,57.77
2018-06-20T22:56:45.021Z,57.95
2018-06-20T22:59:12.765Z,58.10
2018-06-20T23:01:41.700Z,58.24
2018-06-20T23:04:10.021Z,58.41
2018-06-20T23:06:37.765Z,58.40
2018-06-20T23:09:06.696Z,58.52
2018-06-20T23:11:34.437Z,58.79
2018-06-20T23:14:03.379Z,59.09
2018-06-20T23:16:31.714Z,59.27
2018-06-20T23:19:00.060Z,59.37
2018-06-20T23:21:28.615Z,59.55
2018-06-20T23:23:56.716Z,59.93
2018-06-20T23:26:25.184Z,60.18
2018-06-20T23:28:53.516Z,59.84
2018-06-20T23:31:22.072Z,59.36
2018-06-20T23:33:49.578Z,59.09
2018-06-20T23:36:18.489Z,58.93
2018-06-20T23:38:46.821Z,58.81
2018-06-20T23:41:14.570Z,58.69
2018-06-20T23:43:43.512Z,58.83
2018-06-20T23:46:11.893Z,58.78
2018-06-20T23:48:39.645Z,58.70
2018-06-20T23:51:08.548Z,58.67
2018-06-20T23:53:36.875Z,58.75
2018-06-20T23:56:04.618Z,59.17
2018-06-20T23:58:33.529Z,59.38
